Time;durP1;ratioP1;P1;durP2;ratioP2;P2;SDS_P1;SDS_P2;PMS_P1;PMS_P2;Temp;Humidity;BMP_temperature;BMP_pressure;BME280_temperature;BME280_humidity;BME280_pressure;Samples;Min_cycle;Max_cycle;Signal;HPM_P1;HPM_P2
2022/07/20 00:01:12;;;;;;;7.65;3.20;;;25.50;48.70;;;;;;5044226;28;20029;-49
2022/07/20 00:03:37;;;;;;;3.17;2.88;;;25.50;48.80;;;;;;5045495;28;20037;-48
2022/07/20 00:06:03;;;;;;;4.53;2.83;;;25.50;48.80;;;;;;5043652;28;20040;-51
2022/07/20 00:11:21;;;;;;;4.57;3.42;;;25.50;48.80;;;;;;5044294;28;20116;-50
2022/07/20 00:13:52;;;;;;;4.17;3.03;;;25.50;48.80;;;;;;5044874;28;20025;-51
2022/07/20 00:16:18;;;;;;;3.90;2.75;;;25.50;48.80;;;;;;5044292;28;20036;-47
2022/07/20 00:18:44;;;;;;;4.88;2.90;;;25.50;48.90;;;;;;5043544;28;20029;-47
2022/07/20 00:21:10;;;;;;;6.03;3.03;;;25.50;48.90;;;;;;5044318;28;20032;-48
2022/07/20 00:23:35;;;;;;;3.30;2.58;;;25.50;48.90;;;;;;5044422;28;20024;-48
2022/07/20 00:26:01;;;;;;;4.85;2.65;;;25.50;48.90;;;;;;5043988;28;20037;-50
2022/07/20 00:28:26;;;;;;;4.00;2.72;;;25.50;48.90;;;;;;5043746;28;20064;-48
2022/07/20 00:30:52;;;;;;;3.47;3.17;;;25.50;49.00;;;;;;5043838;28;20215;-48
2022/07/20 00:33:17;;;;;;;4.47;2.75;;;25.40;48.90;;;;;;5043738;28;20056;-49
2022/07/20 00:35:43;;;;;;;3.88;2.90;;;25.40;49.00;;;;;;5044036;28;20029;-48
2022/07/20 00:38:08;;;;;;;4.80;3.42;;;25.40;49.10;;;;;;5047840;28;20037;-48
2022/07/20 00:40:34;;;;;;;3.00;2.70;;;25.50;49.20;;;;;;5046647;28;20487;-49
2022/07/20 00:42:59;;;;;;;4.38;2.97;;;25.50;49.20;;;;;;5047890;28;20036;-49
2022/07/20 00:45:25;;;;;;;4.30;3.13;;;25.40;49.20;;;;;;5047359;28;20040;-48
2022/07/20 00:47:51;;;;;;;3.15;2.78;;;25.40;49.20;;;;;;5047333;28;20021;-48
2022/07/20 00:50:17;;;;;;;2.85;2.53;;;25.40;49.20;;;;;;5046941;28;20037;-50
2022/07/20 00:52:42;;;;;;;3.53;2.92;;;25.40;49.20;;;;;;5047540;28;20117;-49
2022/07/20 00:55:08;;;;;;;7.93;3.47;;;25.40;49.20;;;;;;5030245;28;20112;-47
2022/07/20 00:57:33;;;;;;;4.72;3.33;;;25.40;49.20;;;;;;5047293;28;20420;-47
2022/07/20 00:59:59;;;;;;;4.60;2.88;;;25.40;49.20;;;;;;5046813;28;20025;-48
2022/07/20 01:02:24;;;;;;;6.22;3.25;;;25.40;49.20;;;;;;5047011;28;20032;-49
2022/07/20 01:04:50;;;;;;;3.40;2.90;;;25.40;49.20;;;;;;5047276;28;20036;-46
2022/07/20 01:07:15;;;;;;;6.63;3.13;;;25.40;49.30;;;;;;5047422;28;20056;-47
2022/07/20 01:09:41;;;;;;;4.95;3.03;;;25.40;49.40;;;;;;5012499;28;20407;-47
2022/07/20 01:12:09;;;;;;;4.50;3.60;;;25.40;49.40;;;;;;5046739;28;21210;-47
2022/07/20 01:14:34;;;;;;;4.95;2.75;;;25.40;49.40;;;;;;5047007;28;20116;-48
2022/07/20 01:17:00;;;;;;;3.30;2.53;;;25.30;49.40;;;;;;5046742;28;20120;-49
2022/07/20 01:19:25;;;;;;;4.45;3.17;;;25.30;49.40;;;;;;5046509;28;20064;-48
2022/07/20 01:21:51;;;;;;;5.15;3.38;;;25.40;49.50;;;;;;5046672;28;20021;-48
2022/07/20 01:24:16;;;;;;;3.50;2.83;;;25.30;49.50;;;;;;5046992;28;20033;-51
2022/07/20 01:26:44;;;;;;;3.80;2.92;;;25.40;49.60;;;;;;5047079;28;20017;-49
2022/07/20 01:29:09;;;;;;;2.60;2.40;;;25.30;49.60;;;;;;5029482;28;20029;-48
2022/07/20 01:31:35;;;;;;;4.85;3.22;;;25.30;49.60;;;;;;5046247;28;20576;-50
2022/07/20 01:34:00;;;;;;;4.30;3.22;;;25.30;49.60;;;;;;5046825;28;20052;-49
2022/07/20 01:36:26;;;;;;;2.95;2.47;;;25.30;49.70;;;;;;5046866;28;20033;-48
2022/07/20 01:38:52;;;;;;;4.60;2.70;;;25.30;49.70;;;;;;5046465;28;20029;-48
2022/07/20 01:41:17;;;;;;;2.88;2.65;;;25.30;49.80;;;;;;5046715;28;20029;-48
2022/07/20 01:43:43;;;;;;;4.45;2.90;;;25.30;49.80;;;;;;5046958;28;20062;-48
2022/07/20 01:46:08;;;;;;;4.45;2.65;;;25.30;49.90;;;;;;5046770;28;20449;-48
2022/07/20 01:48:34;;;;;;;5.47;3.03;;;25.30;50.00;;;;;;5044985;28;20068;-49
2022/07/20 01:50:59;;;;;;;3.30;2.70;;;25.30;50.00;;;;;;5045952;28;20044;-48
2022/07/20 01:53:25;;;;;;;3.20;2.50;;;25.30;50.00;;;;;;5046756;28;20036;-48
2022/07/20 01:55:53;;;;;;;4.78;3.08;;;25.30;50.00;;;;;;5046179;28;20499;-48
2022/07/20 01:58:19;;;;;;;5.75;2.92;;;25.30;50.10;;;;;;5046507;28;20556;-49
2022/07/20 02:00:45;;;;;;;4.95;2.75;;;25.30;50.10;;;;;;5045283;28;20024;-49
2022/07/20 02:03:10;;;;;;;5.28;2.90;;;25.20;50.10;;;;;;5029162;28;20394;-49
2022/07/20 02:05:36;;;;;;;5.45;3.35;;;25.20;50.10;;;;;;5046556;28;20028;-49
2022/07/20 02:08:01;;;;;;;4.82;2.97;;;25.20;50.10;;;;;;5065297;28;20029;-52
2022/07/20 02:10:27;;;;;;;3.97;2.63;;;25.20;50.10;;;;;;5065603;28;20028;-48
2022/07/20 02:12:53;;;;;;;3.53;3.00;;;25.20;50.20;;;;;;5066019;28;20031;-49
2022/07/20 02:18:07;;;;;;;3.72;3.15;;;25.20;50.10;;;;;;5066066;28;20031;-49
2022/07/20 02:20:32;;;;;;;5.53;2.95;;;25.20;50.00;;;;;;5046921;28;20427;-50
2022/07/20 02:22:57;;;;;;;3.15;2.72;;;25.20;50.00;;;;;;5065779;28;20025;-49
2022/07/20 02:25:23;;;;;;;3.30;2.80;;;25.20;50.00;;;;;;5065265;28;20024;-49
2022/07/20 02:27:48;;;;;;;7.45;3.28;;;25.20;50.00;;;;;;5065298;28;20023;-48
2022/07/20 02:30:14;;;;;;;3.75;3.33;;;25.20;50.00;;;;;;5064472;28;20485;-47
2022/07/20 02:32:40;;;;;;;4.47;2.67;;;25.20;49.90;;;;;;5065636;28;20078;-49
2022/07/20 02:35:05;;;;;;;3.00;2.40;;;25.20;49.90;;;;;;5065933;28;20109;-48
2022/07/20 02:37:31;;;;;;;6.28;3.22;;;25.20;49.70;;;;;;5065177;28;20033;-48
2022/07/20 02:39:56;;;;;;;5.95;2.95;;;25.20;49.70;;;;;;5064874;28;20028;-48
2022/07/20 02:42:22;;;;;;;7.22;2.53;;;25.20;49.60;;;;;;5064857;28;20099;-50
2022/07/20 02:44:48;;;;;;;4.13;2.90;;;25.20;49.60;;;;;;5064985;28;20112;-48
2022/07/20 02:47:13;;;;;;;4.35;2.83;;;25.20;49.50;;;;;;5065040;28;20028;-51
2022/07/20 02:49:39;;;;;;;3.97;2.72;;;25.20;49.40;;;;;;5065102;28;20745;-49
2022/07/20 02:52:04;;;;;;;6.53;3.00;;;25.20;49.40;;;;;;5064998;28;20025;-49
2022/07/20 02:54:30;;;;;;;3.20;2.38;;;25.20;49.30;;;;;;5065282;28;20124;-49
2022/07/20 02:56:55;;;;;;;4.50;2.53;;;25.20;49.20;;;;;;5064362;28;20408;-48
2022/07/20 02:59:21;;;;;;;5.32;2.90;;;25.20;49.20;;;;;;5064118;28;20047;-48
2022/07/20 03:01:46;;;;;;;4.38;2.72;;;25.20;49.10;;;;;;5046633;28;20028;-48
2022/07/20 03:04:12;;;;;;;5.03;3.15;;;25.20;49.10;;;;;;5065693;28;20044;-48
2022/07/20 03:06:37;;;;;;;3.88;3.33;;;25.20;49.10;;;;;;5064667;28;20557;-50
2022/07/20 03:09:03;;;;;;;4.78;2.80;;;25.20;49.10;;;;;;5064817;28;20108;-50
2022/07/20 03:11:28;;;;;;;4.55;3.03;;;25.20;49.10;;;;;;5065201;28;20055;-46
2022/07/20 03:13:54;;;;;;;4.53;3.30;;;25.10;49.00;;;;;;5046961;28;20060;-50
2022/07/20 03:16:19;;;;;;;5.50;2.60;;;25.10;49.00;;;;;;5045100;28;20173;-49
2022/07/20 03:18:45;;;;;;;3.83;2.95;;;25.20;49.10;;;;;;5044423;28;20589;-51
2022/07/20 03:21:10;;;;;;;3.33;2.72;;;25.10;49.10;;;;;;5045361;28;20102;-49
2022/07/20 03:23:36;;;;;;;5.10;3.25;;;25.10;49.10;;;;;;5044983;28;20074;-48
2022/07/20 03:26:01;;;;;;;4.95;2.83;;;25.10;49.10;;;;;;5045323;28;20104;-49
2022/07/20 03:28:27;;;;;;;7.18;3.28;;;25.10;49.10;;;;;;5044069;28;20033;-48
2022/07/20 03:30:52;;;;;;;5.07;2.58;;;25.10;49.20;;;;;;5045089;28;20024;-50
2022/07/20 03:33:18;;;;;;;2.92;2.38;;;25.10;49.20;;;;;;5031024;28;20056;-48
2022/07/20 03:35:43;;;;;;;3.72;2.58;;;25.10;49.20;;;;;;5044609;28;20380;-49
2022/07/20 03:38:09;;;;;;;3.70;2.83;;;25.10;49.20;;;;;;5045330;28;20083;-50
2022/07/20 03:40:34;;;;;;;3.42;2.45;;;25.20;49.30;;;;;;5044691;28;20021;-48
2022/07/20 03:43:00;;;;;;;4.35;2.85;;;25.10;49.20;;;;;;5044550;28;20070;-50
2022/07/20 03:45:25;;;;;;;3.10;2.60;;;25.20;49.20;;;;;;5035241;22;20080;-47
2022/07/20 03:47:50;;;;;;;3.75;2.50;;;25.20;49.20;;;;;;5024517;28;20029;-46
2022/07/20 03:50:16;;;;;;;4.18;2.47;;;25.20;49.20;;;;;;5023773;28;20029;-51
2022/07/20 03:52:42;;;;;;;5.10;2.75;;;25.20;49.10;;;;;;5025470;28;20036;-48
2022/07/20 03:55:08;;;;;;;4.90;2.33;;;25.20;49.20;;;;;;5024747;28;20197;-49
2022/07/20 03:57:33;;;;;;;3.38;2.35;;;25.20;49.20;;;;;;5024582;28;20040;-48
2022/07/20 03:59:59;;;;;;;3.67;2.55;;;25.20;49.20;;;;;;5024175;28;20092;-49
2022/07/20 04:02:24;;;;;;;4.00;2.63;;;25.20;49.20;;;;;;5024450;28;20438;-49
2022/07/20 04:04:50;;;;;;;3.83;2.35;;;25.20;49.20;;;;;;5022963;28;20033;-47
2022/07/20 04:07:15;;;;;;;3.35;2.90;;;25.20;49.30;;;;;;5023839;28;20026;-50
2022/07/20 04:09:44;;;;;;;3.75;2.70;;;25.10;49.20;;;;;;5040217;28;20100;-47
2022/07/20 04:12:10;;;;;;;3.28;2.97;;;25.20;49.30;;;;;;5046427;28;20043;-48
2022/07/20 04:14:36;;;;;;;3.50;2.35;;;25.10;49.30;;;;;;5048314;28;20040;-49
2022/07/20 04:17:01;;;;;;;3.30;2.45;;;25.10;49.30;;;;;;5048261;28;20029;-48
2022/07/20 04:19:27;;;;;;;3.30;2.58;;;25.10;49.30;;;;;;5047364;28;20029;-48
2022/07/20 04:21:59;;;;;;;3.13;2.42;;;25.10;49.40;;;;;;5048092;28;20025;-48
2022/07/20 04:24:25;;;;;;;2.80;2.55;;;25.10;49.40;;;;;;5048081;28;20049;-48
2022/07/20 04:26:50;;;;;;;2.58;2.05;;;25.20;49.40;;;;;;5030447;28;20064;-49
2022/07/20 04:29:16;;;;;;;4.68;2.58;;;25.10;49.30;;;;;;5029460;28;20482;-48
2022/07/20 04:31:41;;;;;;;3.17;2.75;;;25.20;49.40;;;;;;5048149;28;20507;-48
2022/07/20 04:34:07;;;;;;;4.25;2.92;;;25.20;49.40;;;;;;5047887;28;20103;-48
2022/07/20 04:36:32;;;;;;;4.03;2.50;;;25.10;49.40;;;;;;5047807;28;20029;-47
2022/07/20 04:38:58;;;;;;;4.95;2.55;;;25.10;49.40;;;;;;5047098;28;20518;-49
2022/07/20 04:41:23;;;;;;;3.25;2.20;;;25.10;49.40;;;;;;5047468;28;20033;-49
2022/07/20 04:43:49;;;;;;;3.83;2.58;;;25.20;49.40;;;;;;5047596;28;20423;-49
2022/07/20 04:46:14;;;;;;;4.30;2.53;;;25.20;49.50;;;;;;5029724;28;20036;-48
2022/07/20 04:48:40;;;;;;;5.13;2.38;;;25.20;49.40;;;;;;5044557;28;20064;-48
2022/07/20 04:51:05;;;;;;;3.90;2.45;;;25.20;49.40;;;;;;5028105;28;20571;-48
2022/07/20 04:53:31;;;;;;;7.28;2.97;;;25.20;49.50;;;;;;5027994;28;20037;-51
2022/07/20 04:55:56;;;;;;;5.63;2.50;;;25.20;49.50;;;;;;5027855;28;20049;-49
2022/07/20 04:58:22;;;;;;;5.82;2.70;;;25.20;49.50;;;;;;5027631;28;20053;-47
2022/07/20 05:00:47;;;;;;;2.53;2.33;;;25.20;49.50;;;;;;5026897;28;20515;-48
2022/07/20 05:03:13;;;;;;;3.35;2.47;;;25.20;49.50;;;;;;5027740;28;20101;-48
2022/07/20 05:05:38;;;;;;;4.53;3.22;;;25.10;49.40;;;;;;5027435;28;20115;-48
2022/07/20 05:08:04;;;;;;;2.75;2.50;;;25.10;49.40;;;;;;5025252;28;20195;-48
2022/07/20 05:10:29;;;;;;;3.45;2.40;;;25.20;49.50;;;;;;5026877;28;20737;-52
2022/07/20 05:12:55;;;;;;;3.83;2.70;;;25.20;49.50;;;;;;5027485;28;20029;-48
2022/07/20 05:15:23;;;;;;;4.07;2.47;;;25.20;49.50;;;;;;5025996;28;20092;-48
2022/07/20 05:17:51;;;;;;;2.67;2.45;;;25.20;49.50;;;;;;5026097;28;20522;-50
2022/07/20 05:20:17;;;;;;;3.20;2.88;;;25.20;49.50;;;;;;5026949;28;20025;-49
2022/07/20 05:22:42;;;;;;;3.10;2.30;;;25.20;49.50;;;;;;5027571;28;20480;-49
2022/07/20 05:25:08;;;;;;;2.35;2.10;;;25.20;49.50;;;;;;5027351;28;20061;-52
2022/07/20 05:27:34;;;;;;;2.53;2.33;;;25.20;49.50;;;;;;5027504;28;20496;-52
2022/07/20 05:29:59;;;;;;;4.78;2.83;;;25.30;49.60;;;;;;5026406;28;20512;-54
2022/07/20 05:32:25;;;;;;;2.75;2.30;;;25.30;49.50;;;;;;5027494;28;20029;-53
2022/07/20 05:34:50;;;;;;;2.63;2.20;;;25.30;49.50;;;;;;5027662;28;20103;-50
2022/07/20 05:37:16;;;;;;;5.82;2.53;;;25.30;49.50;;;;;;5026933;28;20152;-53
2022/07/20 05:39:41;;;;;;;4.70;2.55;;;25.30;49.50;;;;;;5026737;28;20385;-53
2022/07/20 05:42:07;;;;;;;3.08;2.35;;;25.30;49.40;;;;;;5027065;28;20029;-51
2022/07/20 05:44:32;;;;;;;3.17;2.33;;;25.30;49.40;;;;;;5025478;28;20072;-52
2022/07/20 05:46:58;;;;;;;2.20;2.00;;;25.30;49.40;;;;;;5027185;28;20025;-52
2022/07/20 05:49:23;;;;;;;2.38;2.03;;;25.30;49.40;;;;;;5026212;28;20467;-51
2022/07/20 05:51:49;;;;;;;2.55;2.20;;;25.30;49.30;;;;;;5026984;28;20033;-53
2022/07/20 05:54:14;;;;;;;3.70;2.15;;;25.30;49.30;;;;;;5026813;28;20029;-48
2022/07/20 05:56:40;;;;;;;2.90;2.15;;;25.30;49.30;;;;;;5027341;28;20033;-52
2022/07/20 05:59:05;;;;;;;5.57;2.70;;;25.30;49.30;;;;;;5025689;28;20030;-51
2022/07/20 06:01:31;;;;;;;5.18;2.30;;;25.40;49.40;;;;;;5025347;28;20033;-53
2022/07/20 06:03:57;;;;;;;3.47;2.55;;;25.40;49.40;;;;;;5026905;28;20500;-50
2022/07/20 06:06:22;;;;;;;3.20;2.25;;;25.40;49.30;;;;;;5026800;28;20456;-53
2022/07/20 06:08:48;;;;;;;3.33;2.13;;;25.40;49.20;;;;;;5026124;28;20037;-49
2022/07/20 06:11:13;;;;;;;3.38;2.30;;;25.40;49.20;;;;;;5025839;28;20025;-51
2022/07/20 06:13:39;;;;;;;2.35;1.85;;;25.40;49.30;;;;;;5025161;28;20158;-52
2022/07/20 06:16:05;;;;;;;2.60;2.40;;;25.50;49.30;;;;;;5025183;28;20037;-48
2022/07/20 06:18:30;;;;;;;2.58;2.20;;;25.50;49.30;;;;;;5025942;28;20029;-47
2022/07/20 06:20:56;;;;;;;3.40;1.95;;;25.50;49.30;;;;;;5026336;28;20075;-47
2022/07/20 06:23:21;;;;;;;3.83;1.95;;;25.50;49.30;;;;;;5026848;28;20512;-52
2022/07/20 06:25:47;;;;;;;3.75;2.10;;;25.50;49.20;;;;;;5026835;28;20488;-52
2022/07/20 06:28:12;;;;;;;4.15;2.40;;;25.50;49.20;;;;;;5026632;28;20025;-50
2022/07/20 06:30:38;;;;;;;3.42;2.60;;;25.50;49.30;;;;;;5026290;28;20435;-50
2022/07/20 06:33:03;;;;;;;6.60;2.25;;;25.60;49.30;;;;;;5026558;28;20080;-49
2022/07/20 06:35:29;;;;;;;4.53;2.78;;;25.60;49.50;;;;;;5025599;28;20033;-50
2022/07/20 06:37:54;;;;;;;4.40;2.20;;;25.60;49.60;;;;;;5026237;28;20407;-53
2022/07/20 06:40:20;;;;;;;7.40;2.65;;;25.60;49.30;;;;;;5025334;28;20100;-49
2022/07/20 06:42:45;;;;;;;6.00;2.58;;;25.70;49.40;;;;;;5025880;28;20088;-52
2022/07/20 06:45:11;;;;;;;8.38;2.70;;;25.70;49.40;;;;;;5024874;28;20037;-54
2022/07/20 06:47:36;;;;;;;4.70;2.50;;;25.70;49.20;;;;;;5025723;28;20026;-51
2022/07/20 06:50:04;;;;;;;9.23;3.13;;;25.60;49.10;;;;;;5024936;28;20044;-53
2022/07/20 06:52:30;;;;;;;3.70;2.47;;;25.70;49.00;;;;;;5025965;28;20033;-50
2022/07/20 06:54:56;;;;;;;3.05;2.65;;;25.70;48.80;;;;;;5025689;28;20041;-53
2022/07/20 06:57:21;;;;;;;4.57;2.70;;;25.70;48.80;;;;;;5023843;28;20038;-51
2022/07/20 06:59:48;;;;;;;5.20;3.13;;;25.70;48.90;;;;;;5025052;28;20030;-51
2022/07/20 07:02:13;;;;;;;8.02;3.03;;;25.70;48.60;;;;;;5025935;28;20033;-53
2022/07/20 07:04:39;;;;;;;4.45;2.97;;;25.70;48.50;;;;;;5025950;28;20033;-53
2022/07/20 07:07:04;;;;;;;7.97;3.20;;;25.70;48.50;;;;;;5025743;28;20715;-53
2022/07/20 07:09:30;;;;;;;3.55;2.85;;;25.70;48.40;;;;;;5024776;28;20049;-53
2022/07/20 07:11:56;;;;;;;7.25;3.25;;;25.70;48.40;;;;;;5023959;28;20511;-50
2022/07/20 07:14:21;;;;;;;6.13;2.90;;;25.80;48.30;;;;;;5025514;28;20033;-54
2022/07/20 07:16:47;;;;;;;5.97;3.10;;;25.80;48.30;;;;;;5024651;28;20034;-54
2022/07/20 07:19:12;;;;;;;4.57;2.88;;;25.80;48.10;;;;;;5025034;28;20558;-52
2022/07/20 07:21:38;;;;;;;4.70;2.42;;;25.80;48.20;;;;;;5025149;28;20056;-49
2022/07/20 07:24:04;;;;;;;7.93;3.30;;;25.80;48.10;;;;;;5025466;28;20030;-53
2022/07/20 07:26:29;;;;;;;6.53;3.33;;;25.80;48.00;;;;;;5025137;28;20445;-51
2022/07/20 07:28:55;;;;;;;6.97;3.45;;;25.80;47.80;;;;;;5023249;28;20090;-53
2022/07/20 07:31:20;;;;;;;8.32;3.42;;;25.80;48.20;;;;;;5025017;28;20551;-51
2022/07/20 07:33:46;;;;;;;5.30;2.78;;;25.90;48.20;;;;;;5025726;28;20029;-50
2022/07/20 07:36:12;;;;;;;9.20;3.58;;;25.90;48.10;;;;;;5025107;28;20036;-52
2022/07/20 07:38:37;;;;;;;5.25;3.30;;;25.90;48.10;;;;;;5024651;28;20108;-54
2022/07/20 07:41:03;;;;;;;5.63;2.83;;;26.00;48.20;;;;;;5024856;28;20051;-47
2022/07/20 07:43:28;;;;;;;5.13;3.53;;;26.00;48.20;;;;;;5023804;28;20061;-50
2022/07/20 07:45:54;;;;;;;8.95;3.88;;;26.00;48.30;;;;;;5024910;28;20410;-53
2022/07/20 07:48:19;;;;;;;6.80;3.17;;;26.00;48.20;;;;;;5024846;28;20033;-51
2022/07/20 07:50:45;;;;;;;4.38;2.70;;;26.00;47.80;;;;;;5024911;28;20029;-50
2022/07/20 07:53:10;;;;;;;5.40;2.88;;;26.00;47.90;;;;;;5024390;28;20026;-50
2022/07/20 07:55:40;;;;;;;5.13;2.92;;;26.00;47.90;;;;;;5007232;28;20021;-52
2022/07/20 07:58:06;;;;;;;5.55;3.38;;;26.00;47.80;;;;;;5024261;28;20092;-51
2022/07/20 08:00:32;;;;;;;9.10;3.58;;;26.00;47.80;;;;;;5024190;28;20040;-53
2022/07/20 08:02:57;;;;;;;6.82;3.25;;;26.10;47.70;;;;;;5024658;28;20492;-52
2022/07/20 08:05:23;;;;;;;4.93;3.28;;;26.10;47.80;;;;;;5024603;28;20028;-48
2022/07/20 08:07:49;;;;;;;8.63;3.28;;;26.10;47.70;;;;;;5024236;28;20092;-53
2022/07/20 08:10:14;;;;;;;9.93;3.47;;;26.10;47.70;;;;;;5024349;28;20026;-52
2022/07/20 08:12:40;;;;;;;6.43;3.80;;;26.20;47.50;;;;;;5023147;28;20057;-52
2022/07/20 08:15:06;;;;;;;6.68;3.10;;;26.20;47.30;;;;;;5024828;28;20033;-52
2022/07/20 08:17:32;;;;;;;4.75;3.42;;;26.20;47.20;;;;;;5024395;28;20092;-51
2022/07/20 08:19:57;;;;;;;5.13;3.45;;;26.20;47.10;;;;;;5006454;28;20025;-50
2022/07/20 08:22:23;;;;;;;7.38;3.72;;;26.20;47.00;;;;;;5028645;28;20025;-50
2022/07/20 08:24:48;;;;;;;5.22;3.63;;;26.20;46.90;;;;;;5026678;28;20453;-49
2022/07/20 08:27:14;;;;;;;8.90;3.88;;;26.20;46.80;;;;;;5044336;28;20056;-46
2022/07/20 08:29:39;;;;;;;6.15;3.28;;;26.20;46.60;;;;;;5043730;28;20026;-49
2022/07/20 08:32:05;;;;;;;3.35;3.05;;;26.30;47.30;;;;;;5044131;28;20251;-49
2022/07/20 08:34:30;;;;;;;6.60;3.45;;;26.30;47.60;;;;;;5024275;28;20064;-49
2022/07/20 08:36:56;;;;;;;6.22;3.72;;;26.30;47.30;;;;;;5023810;28;20109;-49
2022/07/20 08:39:22;;;;;;;4.50;2.88;;;26.40;47.10;;;;;;5023550;28;20030;-48
2022/07/20 08:41:47;;;;;;;6.43;3.15;;;26.40;47.10;;;;;;5024030;28;20033;-47
2022/07/20 08:44:13;;;;;;;6.82;3.38;;;26.40;46.70;;;;;;5024453;28;20116;-48
2022/07/20 08:46:38;;;;;;;7.95;3.38;;;26.40;46.60;;;;;;5024506;28;20021;-47
2022/07/20 08:49:04;;;;;;;8.50;3.33;;;26.30;46.00;;;;;;5006073;28;20049;-48
2022/07/20 08:51:29;;;;;;;5.57;2.60;;;26.30;46.70;;;;;;5023957;28;20112;-48
2022/07/20 08:53:56;;;;;;;7.18;2.80;;;26.30;45.80;;;;;;5023776;28;20116;-49
2022/07/20 08:56:22;;;;;;;5.22;2.53;;;26.30;45.00;;;;;;5023649;28;20042;-49
2022/07/20 08:58:47;;;;;;;10.82;3.50;;;26.30;45.80;;;;;;5026494;28;20117;-48
2022/07/20 09:01:16;;;;;;;11.73;3.15;;;26.30;45.20;;;;;;5026502;28;20497;-52
2022/07/20 09:03:44;;;;;;;5.60;2.63;;;26.30;44.90;;;;;;5026153;28;20500;-49
2022/07/20 09:06:10;;;;;;;7.13;3.08;;;26.30;44.30;;;;;;5027459;28;20021;-48
2022/07/20 09:08:35;;;;;;;4.82;3.05;;;26.30;43.80;;;;;;5027225;28;20495;-49
2022/07/20 09:11:01;;;;;;;7.40;3.17;;;26.30;44.20;;;;;;5009665;28;20041;-51
2022/07/20 09:13:28;;;;;;;3.80;2.15;;;26.30;44.20;;;;;;5026772;28;20470;-48
2022/07/20 09:15:54;;;;;;;4.45;2.85;;;26.30;43.90;;;;;;5027749;28;20113;-51
2022/07/20 09:18:24;;;;;;;8.55;3.03;;;26.50;43.10;;;;;;5027865;28;20116;-51
2022/07/20 09:21:01;;;;;;;7.60;3.38;;;26.60;42.60;;;;;;5027523;28;20117;-51
2022/07/20 09:23:40;;;;;;;8.50;3.10;;;26.60;42.80;;;;;;5027708;28;20033;-53
2022/07/20 09:26:16;;;;;;;4.82;2.60;;;26.50;43.00;;;;;;5027879;28;20041;-51
2022/07/20 09:28:52;;;;;;;6.18;2.58;;;26.50;43.30;;;;;;5027123;28;20037;-52
2022/07/20 09:31:19;;;;;;;8.65;3.20;;;26.50;43.30;;;;;;5027062;28;20116;-54
2022/07/20 09:33:55;;;;;;;7.13;2.78;;;26.50;42.70;;;;;;5027531;28;20030;-50
2022/07/20 09:36:22;;;;;;;6.72;3.00;;;26.50;43.00;;;;;;5025155;28;20037;-48
2022/07/20 09:38:47;;;;;;;10.10;3.00;;;26.50;42.70;;;;;;5026586;28;20076;-53
2022/07/20 09:41:25;;;;;;;10.75;3.55;;;26.50;42.70;;;;;;5027197;28;20033;-49
2022/07/20 09:43:50;;;;;;;6.05;3.25;;;26.50;43.10;;;;;;5017091;28;20087;-50
2022/07/20 09:46:17;;;;;;;6.18;2.80;;;26.40;43.30;;;;;;5027195;28;20038;-52
2022/07/20 09:48:51;;;;;;;8.07;3.08;;;26.40;43.20;;;;;;5026710;28;20515;-48
2022/07/20 09:51:20;;;;;;;5.28;2.60;;;26.50;43.20;;;;;;5016670;28;20103;-45
2022/07/20 09:53:46;;;;;;;7.43;2.67;;;26.40;43.00;;;;;;5026020;28;20030;-53
2022/07/20 09:56:14;;;;;;;7.30;3.00;;;26.40;42.40;;;;;;5027119;28;20040;-50
2022/07/20 09:58:40;;;;;;;6.57;3.25;;;26.50;42.00;;;;;;5008712;28;20033;-49
2022/07/20 10:01:05;;;;;;;4.88;2.63;;;26.50;41.90;;;;;;5017808;28;20466;-51
2022/07/20 10:03:31;;;;;;;5.95;3.08;;;26.50;41.90;;;;;;5008857;28;20044;-50
2022/07/20 10:05:57;;;;;;;6.50;2.83;;;26.50;42.00;;;;;;5008642;28;20056;-49
2022/07/20 10:08:22;;;;;;;7.80;3.38;;;26.60;41.90;;;;;;5025766;28;20039;-49
2022/07/20 10:10:48;;;;;;;7.55;3.33;;;26.50;42.10;;;;;;4990163;28;20026;-51
2022/07/20 10:13:13;;;;;;;5.88;3.10;;;26.50;42.20;;;;;;5006533;28;20018;-47
2022/07/20 10:16:01;;;;;;;7.28;3.00;;;26.60;42.20;;;;;;5021751;28;20053;-49
2022/07/20 10:18:27;;;;;;;10.55;3.47;;;26.60;42.10;;;;;;5008885;28;20280;-49
2022/07/20 10:20:52;;;;;;;5.25;3.20;;;26.70;41.90;;;;;;5008209;28;20117;-48
2022/07/20 10:23:27;;;;;;;4.70;2.58;;;26.70;42.00;;;;;;5026089;28;20079;-48
2022/07/20 10:25:53;;;;;;;4.03;2.72;;;26.70;42.00;;;;;;5026112;28;20112;-47
2022/07/20 10:28:34;;;;;;;7.13;3.17;;;26.70;41.80;;;;;;5024717;28;20547;-52
2022/07/20 10:31:02;;;;;;;8.40;3.67;;;26.70;42.30;;;;;;5026180;28;20101;-50
2022/07/20 10:33:29;;;;;;;5.45;2.50;;;26.60;42.60;;;;;;5026244;28;20416;-48
2022/07/20 10:38:39;;;;;;;6.60;3.42;;;26.70;41.90;;;;;;5024467;28;20072;-52
2022/07/20 10:44:21;;;;;;;9.30;3.35;;;26.60;42.80;;;;;;5031760;28;20028;-49
2022/07/20 10:46:47;;;;;;;5.78;3.25;;;26.60;42.60;;;;;;5026039;28;20040;-48
2022/07/20 10:49:12;;;;;;;8.38;3.28;;;26.70;41.50;;;;;;5025118;28;20045;-50
2022/07/20 10:51:38;;;;;;;7.00;3.08;;;26.70;41.30;;;;;;5024246;28;20045;-50
2022/07/20 10:54:31;;;;;;;6.00;3.45;;;26.70;42.10;;;;;;5025848;28;20033;-49
2022/07/20 10:56:58;;;;;;;5.43;2.80;;;26.70;42.40;;;;;;5025389;28;20571;-50
2022/07/20 10:59:23;;;;;;;5.28;3.10;;;26.70;42.00;;;;;;5025028;28;20504;-50
2022/07/20 11:01:49;;;;;;;9.32;3.20;;;26.70;42.00;;;;;;5025240;28;20079;-48
2022/07/20 11:04:15;;;;;;;10.70;3.17;;;26.70;42.30;;;;;;5023915;28;20030;-51
2022/07/20 11:06:41;;;;;;;6.40;3.60;;;26.70;41.60;;;;;;5024191;28;20053;-51
2022/07/20 11:09:06;;;;;;;7.93;3.08;;;26.70;41.50;;;;;;5025180;28;20111;-49
2022/07/20 11:11:34;;;;;;;9.70;3.45;;;26.70;41.90;;;;;;5025148;28;20029;-49
2022/07/20 11:14:01;;;;;;;4.97;3.00;;;26.70;41.40;;;;;;5024594;28;20036;-52
2022/07/20 11:16:26;;;;;;;6.57;3.17;;;26.70;41.40;;;;;;5008110;28;20091;-48
2022/07/20 11:18:52;;;;;;;7.80;3.15;;;26.80;41.30;;;;;;5024453;28;20565;-49
2022/07/20 11:21:28;;;;;;;8.43;3.00;;;26.80;41.40;;;;;;5024109;28;20106;-49
2022/07/20 11:23:53;;;;;;;6.35;3.13;;;26.70;41.50;;;;;;5023444;28;20040;-48
2022/07/20 11:26:20;;;;;;;7.10;2.95;;;26.80;41.00;;;;;;5023712;28;20029;-47
2022/07/20 11:28:50;;;;;;;6.15;3.42;;;26.90;40.60;;;;;;5025269;28;20318;-49
2022/07/20 11:31:16;;;;;;;5.07;2.83;;;26.90;40.80;;;;;;5025312;28;20023;-49
2022/07/20 11:33:43;;;;;;;3.15;2.72;;;26.90;41.90;;;;;;5023661;28;20030;-52
2022/07/20 11:36:13;;;;;;;8.55;3.20;;;26.80;41.40;;;;;;5025112;28;20033;-49
2022/07/20 11:38:39;;;;;;;5.43;2.90;;;26.80;41.60;;;;;;5024303;28;20577;-51
2022/07/20 11:41:06;;;;;;;4.95;3.15;;;26.80;41.50;;;;;;5026871;28;20033;-49
2022/07/20 11:43:32;;;;;;;6.43;3.15;;;26.90;41.40;;;;;;5044487;28;20522;-52
2022/07/20 11:46:17;;;;;;;6.22;3.35;;;26.80;41.50;;;;;;5044488;28;20069;-50
2022/07/20 11:48:44;;;;;;;8.25;4.00;;;26.80;41.50;;;;;;5043966;28;20087;-50
2022/07/20 11:51:09;;;;;;;7.13;3.85;;;26.90;41.00;;;;;;5044144;28;20051;-49
2022/07/20 11:53:39;;;;;;;7.25;3.67;;;26.90;40.80;;;;;;5044475;28;20036;-48
2022/07/20 11:56:13;;;;;;;7.38;3.60;;;27.00;40.70;;;;;;5026696;28;20101;-49
2022/07/20 11:58:38;;;;;;;6.20;3.53;;;27.00;40.60;;;;;;5027363;28;20037;-50
2022/07/20 12:01:06;;;;;;;6.00;3.20;;;27.00;40.70;;;;;;5026448;28;20499;-49
2022/07/20 12:03:35;;;;;;;7.20;3.42;;;27.00;41.10;;;;;;5044153;28;20037;-48
2022/07/20 12:06:03;;;;;;;7.53;3.60;;;27.00;41.00;;;;;;5026516;28;20052;-48
2022/07/20 12:08:29;;;;;;;9.35;3.70;;;27.00;40.80;;;;;;5043571;28;20505;-49
2022/07/20 12:10:55;;;;;;;6.18;3.65;;;27.00;40.80;;;;;;5026194;28;20108;-48
2022/07/20 12:13:21;;;;;;;6.60;3.42;;;27.10;40.50;;;;;;5026521;28;20108;-50
2022/07/20 12:15:57;;;;;;;4.43;3.50;;;27.00;40.70;;;;;;5027207;28;20079;-48
2022/07/20 12:18:50;;;;;;;5.18;3.50;;;27.10;41.40;;;;;;5043788;28;20099;-48
2022/07/20 12:21:20;;;;;;;8.85;3.67;;;27.10;40.30;;;;;;5044389;28;20031;-49
2022/07/20 12:23:48;;;;;;;5.57;4.28;;;27.20;39.80;;;;;;5026687;28;20100;-48
2022/07/20 12:26:28;;;;;;;4.80;3.40;;;27.20;39.80;;;;;;5026719;28;20026;-48
2022/07/20 12:28:55;;;;;;;5.75;3.67;;;27.10;41.00;;;;;;5043610;28;20033;-47
2022/07/20 12:31:24;;;;;;;5.93;3.65;;;27.10;40.20;;;;;;5043956;28;20399;-48
2022/07/20 12:34:08;;;;;;;7.70;4.00;;;27.10;40.00;;;;;;5029441;28;20039;-49
2022/07/20 12:36:47;;;;;;;7.78;3.40;;;27.20;40.10;;;;;;5047823;28;20025;-47
2022/07/20 12:39:15;;;;;;;6.32;3.60;;;27.10;39.90;;;;;;5047410;28;20029;-48
2022/07/20 12:41:41;;;;;;;5.63;3.75;;;27.20;39.80;;;;;;5029932;28;20036;-48
2022/07/20 12:44:23;;;;;;;6.97;3.80;;;27.20;39.60;;;;;;5047406;28;20040;-48
2022/07/20 12:46:49;;;;;;;6.70;4.13;;;27.20;39.70;;;;;;5001046;28;20112;-50
2022/07/20 12:49:19;;;;;;;7.80;4.03;;;27.30;39.60;;;;;;5025866;28;21278;-48
2022/07/20 12:51:44;;;;;;;7.38;3.70;;;27.20;40.50;;;;;;5027993;28;20056;-49
2022/07/20 12:54:10;;;;;;;6.53;3.53;;;27.30;41.40;;;;;;5028334;28;20022;-49